Time;durP1;ratioP1;P1;durP2;ratioP2;P2;SDS_P1;SDS_P2;PMS_P1;PMS_P2;Temp;Humidity;BMP_temperature;BMP_pressure;BME280_temperature;BME280_humidity;BME280_pressure;Samples;Min_cycle;Max_cycle;Signal;HPM_P1;HPM_P2
2021/11/06 00:00:18;;;;;;;;;25.25;21.50;;;;;11.86;59.23;102696.16;5060070;28;45259;-66
2021/11/06 00:02:44;;;;;;;;;23.00;20.75;;;;;11.85;59.56;102693.50;5059727;28;45403;-66
2021/11/06 00:05:09;;;;;;;;;22.00;19.75;;;;;11.84;59.70;102697.97;5059637;28;45331;-66
2021/11/06 00:07:35;;;;;;;;;22.50;18.75;;;;;11.86;59.79;102706.88;5064931;28;45322;-66
2021/11/06 00:10:00;;;;;;;;;20.00;18.75;;;;;11.81;59.62;102695.31;5060063;28;45235;-66
2021/11/06 00:12:26;;;;;;;;;25.00;22.75;;;;;11.82;59.25;102696.19;5059996;28;45157;-65
2021/11/06 00:14:52;;;;;;;;;26.00;23.50;;;;;11.78;59.52;102703.34;5058612;28;47180;-66
2021/11/06 00:17:17;;;;;;;;;25.75;23.00;;;;;11.77;59.49;102701.56;5059532;28;45202;-66
2021/11/06 00:19:43;;;;;;;;;27.00;23.50;;;;;11.64;59.57;102690.06;5059946;28;45335;-66
2021/11/06 00:22:08;;;;;;;;;29.00;23.50;;;;;11.65;59.17;102702.53;5058374;28;45531;-66
2021/11/06 00:24:34;;;;;;;;;21.75;21.25;;;;;11.66;59.89;102714.09;5059822;28;45385;-66
2021/11/06 00:26:59;;;;;;;;;29.75;25.25;;;;;11.68;59.83;102717.69;5059573;28;45275;-66
2021/11/06 00:29:25;;;;;;;;;27.25;24.50;;;;;11.65;60.01;102709.66;5054187;28;45312;-66
2021/11/06 00:31:50;;;;;;;;;24.25;22.00;;;;;11.68;59.76;102718.56;5051879;28;46043;-65
2021/11/06 00:34:15;;;;;;;;;23.00;21.50;;;;;11.65;59.91;102712.34;5059103;28;45326;-65
2021/11/06 00:36:41;;;;;;;;;26.75;24.00;;;;;11.64;59.84;102710.56;5059618;28;45373;-65
2021/11/06 00:39:06;;;;;;;;;23.50;21.00;;;;;11.64;60.17;102710.56;5059495;28;45338;-65
2021/11/06 00:41:32;;;;;;;;;23.50;20.00;;;;;11.64;59.63;102713.22;5059618;28;45290;-65
2021/11/06 00:43:58;;;;;;;;;24.00;22.50;;;;;11.63;59.88;102708.81;5053102;28;48148;-65
2021/11/06 00:46:24;;;;;;;;;27.50;22.50;;;;;11.62;60.32;102702.53;5051678;28;45378;-65
2021/11/06 00:48:49;;;;;;;;;22.75;21.00;;;;;11.62;59.93;102704.34;5058963;28;45295;-65
2021/11/06 00:51:15;;;;;;;;;18.50;18.50;;;;;11.63;59.88;102706.13;5059643;28;45461;-65
2021/11/06 00:53:40;;;;;;;;;20.25;20.25;;;;;11.63;59.54;102707.00;5059312;28;45291;-65
2021/11/06 00:56:06;;;;;;;;;20.50;18.00;;;;;11.52;59.76;102694.59;5059179;28;45308;-65
2021/11/06 00:58:31;;;;;;;;;22.75;21.50;;;;;11.62;59.85;102705.22;5059460;28;45227;-65
2021/11/06 01:00:57;;;;;;;;;21.00;21.00;;;;;11.57;60.11;102696.31;5059295;28;45226;-65
2021/11/06 01:03:22;;;;;;;;;19.00;18.75;;;;;11.58;60.14;102699.91;5058848;28;46138;-65
2021/11/06 01:05:48;;;;;;;;;25.00;21.75;;;;;11.58;59.92;102697.25;5058611;28;45228;-65
2021/11/06 01:08:13;;;;;;;;;20.00;18.50;;;;;11.56;59.77;102691.91;5059256;28;45152;-65
2021/11/06 01:10:38;;;;;;;;;19.75;18.00;;;;;11.54;60.08;102687.44;5059147;28;45215;-65
2021/11/06 01:13:04;;;;;;;;;19.75;18.00;;;;;11.47;59.84;102666.06;5059137;28;46288;-65
2021/11/06 01:15:30;;;;;;;;;14.00;14.00;;;;;11.48;59.96;102675.00;5058773;28;45362;-65
2021/11/06 01:17:55;;;;;;;;;17.75;17.75;;;;;11.45;59.88;102685.69;5059273;28;45370;-65
2021/11/06 01:20:21;;;;;;;;;17.25;15.25;;;;;11.44;59.93;102691.94;5062599;28;45524;-65
2021/11/06 01:22:46;;;;;;;;;18.50;17.50;;;;;11.43;60.26;102690.19;5062164;28;46285;-65
2021/11/06 01:25:12;;;;;;;;;20.75;16.75;;;;;11.42;59.93;102697.28;5062400;28;45365;-65
2021/11/06 01:27:38;;;;;;;;;18.00;16.00;;;;;11.42;59.88;102691.06;5062529;28;45403;-65
2021/11/06 01:30:06;;;;;;;;;16.00;14.50;;;;;11.38;59.89;102682.16;5051324;28;45556;-66
2021/11/06 01:32:31;;;;;;;;;15.50;15.25;;;;;11.40;59.68;102690.19;5059841;28;45328;-65
2021/11/06 01:34:57;;;;;;;;;17.75;16.00;;;;;11.39;59.93;102691.94;5061205;28;45477;-65
2021/11/06 01:37:22;;;;;;;;;19.75;19.00;;;;;11.36;60.25;102694.66;5062173;28;45425;-65
2021/11/06 01:39:48;;;;;;;;;22.25;20.75;;;;;11.34;60.27;102685.72;5062278;28;45459;-65
2021/11/06 01:42:13;;;;;;;;;18.25;18.25;;;;;11.34;60.16;102696.44;5062142;28;46331;-65
2021/11/06 01:44:38;;;;;;;;;21.25;20.00;;;;;11.26;60.26;102679.53;5062257;28;45383;-65
2021/11/06 01:47:06;;;;;;;;;21.25;17.25;;;;;11.21;60.17;102678.66;5053475;28;45500;-65
2021/11/06 01:49:31;;;;;;;;;22.75;20.00;;;;;11.17;60.01;102675.13;5061663;28;45566;-65
2021/11/06 01:51:57;;;;;;;;;18.75;17.25;;;;;11.21;60.39;102678.66;5061997;28;46106;-65
2021/11/06 01:54:23;;;;;;;;;18.75;18.75;;;;;11.20;59.99;102682.25;5062222;28;45386;-65
2021/11/06 01:56:50;;;;;;;;;17.25;17.25;;;;;11.17;60.22;102676.91;5061822;28;45586;-65
2021/11/06 01:59:16;;;;;;;;;21.00;17.75;;;;;11.20;59.93;102685.81;5062112;28;45240;-65
2021/11/06 02:01:41;;;;;;;;;17.75;17.75;;;;;11.17;60.25;102684.94;5061674;28;46125;-65
2021/11/06 02:04:07;;;;;;;;;18.50;16.75;;;;;11.19;60.51;102681.34;5061388;28;45339;-65
2021/11/06 02:06:32;;;;;;;;;18.25;16.50;;;;;11.16;60.39;102688.50;5061784;28;45205;-65
2021/11/06 02:08:58;;;;;;;;;21.50;18.75;;;;;11.13;59.99;102679.59;5061493;28;45481;-65
2021/11/06 02:11:23;;;;;;;;;28.00;22.25;;;;;11.07;60.79;102682.28;5061679;28;45826;-65
2021/11/06 02:13:49;;;;;;;;;21.75;21.50;;;;;11.11;60.33;102688.53;5061827;28;45298;-65
2021/11/06 02:16:14;;;;;;;;;25.50;18.75;;;;;11.09;60.14;102692.97;5061550;28;45687;-65
2021/11/06 02:18:40;;;;;;;;;24.25;21.75;;;;;11.06;60.50;102684.94;5061340;28;45386;-65
2021/11/06 02:21:09;;;;;;;;;23.00;20.75;;;;;11.07;60.21;102698.31;5060989;28;45450;-65
2021/11/06 02:23:40;;;;;;;;;20.75;20.00;;;;;11.07;60.50;102694.75;5047243;28;45334;-65
2021/11/06 02:26:13;;;;;;;;;23.50;20.50;;;;;11.04;60.41;102693.00;5051847;28;45314;-65
2021/11/06 02:28:39;;;;;;;;;22.25;20.00;;;;;11.03;60.50;102691.22;5061064;28;45225;-65
2021/11/06 02:31:05;;;;;;;;;16.75;16.25;;;;;11.03;60.61;102701.03;5046805;28;46528;-65
2021/11/06 02:33:31;;;;;;;;;24.25;19.25;;;;;11.00;60.54;102691.22;5060911;28;45464;-65
2021/11/06 02:36:00;;;;;;;;;17.75;16.00;;;;;10.96;60.77;102684.13;5061259;28;45480;-66
2021/11/06 02:38:27;;;;;;;;;23.50;17.00;;;;;10.92;60.61;102680.53;5061216;28;45253;-65
2021/11/06 02:40:52;;;;;;;;;21.00;17.50;;;;;10.94;60.66;102686.78;5048090;28;45235;-65
2021/11/06 02:43:18;;;;;;;;;20.50;18.75;;;;;10.90;60.35;102681.47;5061180;28;45322;-67
2021/11/06 02:45:43;;;;;;;;;17.25;17.25;;;;;10.92;60.64;102687.69;5061334;28;45224;-65
2021/11/06 02:48:09;;;;;;;;;18.00;16.00;;;;;10.92;60.41;102690.34;5060695;28;45568;-65
2021/11/06 02:50:35;;;;;;;;;20.00;14.75;;;;;10.85;60.13;102676.13;5060581;28;46051;-65
2021/11/06 02:53:00;;;;;;;;;17.75;16.25;;;;;10.83;59.99;102669.91;5059739;28;45424;-65
2021/11/06 02:55:26;;;;;;;;;18.50;17.50;;;;;10.83;60.25;102674.38;5061221;28;45413;-65
2021/11/06 02:57:52;;;;;;;;;21.00;18.50;;;;;10.82;60.41;102675.25;5060662;28;45471;-65
2021/11/06 03:00:18;;;;;;;;;18.00;15.25;;;;;10.80;60.50;102680.59;5060967;28;45393;-65
2021/11/06 03:02:43;;;;;;;;;17.50;17.00;;;;;10.77;60.65;102679.72;5046888;28;45313;-65
2021/11/06 03:05:11;;;;;;;;;17.25;16.25;;;;;10.73;60.19;102678.81;5061187;28;45398;-66
2021/11/06 03:07:37;;;;;;;;;15.00;14.75;;;;;10.73;60.40;102685.06;5060834;28;45523;-65
2021/11/06 03:10:05;;;;;;;;;17.25;17.25;;;;;10.67;60.27;102676.16;5060741;28;46373;-65
2021/11/06 03:12:32;;;;;;;;;18.75;18.50;;;;;10.67;60.13;102687.72;5060925;28;45593;-65
2021/11/06 03:14:57;;;;;;;;;20.50;19.00;;;;;10.66;60.74;102691.31;5061051;28;45298;-65
2021/11/06 03:17:23;;;;;;;;;21.00;17.50;;;;;10.64;60.15;102690.44;5060113;28;45252;-65
2021/11/06 03:19:49;;;;;;;;;18.25;15.50;;;;;10.63;60.28;102693.97;5056013;28;47332;-65
2021/11/06 03:22:14;;;;;;;;;16.00;14.25;;;;;10.63;60.16;102699.31;5055125;28;45554;-65
2021/11/06 03:24:40;;;;;;;;;19.50;17.00;;;;;10.61;60.62;102708.22;5060841;28;45397;-65
2021/11/06 03:27:06;;;;;;;;;21.00;18.25;;;;;10.60;60.71;102701.09;5060415;28;45297;-65
2021/11/06 03:29:33;;;;;;;;;20.25;19.75;;;;;10.60;60.41;102709.13;5053858;28;45320;-65
2021/11/06 03:31:59;;;;;;;;;22.25;21.75;;;;;10.55;60.50;102695.75;5053861;28;45716;-65
2021/11/06 03:34:25;;;;;;;;;23.00;21.25;;;;;10.49;60.16;102686.00;5060576;28;45362;-65
2021/11/06 03:36:51;;;;;;;;;18.50;17.75;;;;;10.49;60.77;102688.66;5060261;28;45470;-65
2021/11/06 03:39:17;;;;;;;;;23.50;18.25;;;;;10.44;60.18;102685.09;5060399;28;46266;-65
2021/11/06 03:41:43;;;;;;;;;20.00;18.25;;;;;10.44;60.21;102689.53;5060102;28;45583;-65
2021/11/06 03:44:09;;;;;;;;;21.00;20.00;;;;;10.41;60.69;102693.13;5060515;28;45302;-65
2021/11/06 03:46:35;;;;;;;;;18.75;18.75;;;;;10.41;60.16;102697.53;5059643;28;45401;-65
2021/11/06 03:49:00;;;;;;;;;17.00;17.00;;;;;10.39;60.45;102700.25;5059716;28;45265;-65
2021/11/06 03:51:26;;;;;;;;;17.25;17.00;;;;;10.32;60.38;102686.00;5060169;28;45275;-65
2021/11/06 03:53:51;;;;;;;;;15.75;14.75;;;;;10.33;60.70;102690.44;5060476;28;45330;-65
2021/11/06 03:56:18;;;;;;;;;19.75;18.00;;;;;10.33;60.65;102694.91;5059915;28;45211;-65
2021/11/06 03:58:44;;;;;;;;;18.75;17.50;;;;;10.32;60.14;102696.69;5060149;28;46203;-65
2021/11/06 04:01:09;;;;;;;;;21.25;20.00;;;;;10.30;60.03;102700.19;5060014;28;45686;-65
2021/11/06 04:03:35;;;;;;;;;22.50;18.75;;;;;10.25;60.31;102696.63;5055390;28;45444;-65
2021/11/06 04:06:01;;;;;;;;;18.25;17.00;;;;;10.20;60.55;102692.16;5054824;28;45290;-65
2021/11/06 04:08:27;;;;;;;;;19.25;18.50;;;;;10.12;60.60;102685.97;5059886;28;45350;-65
2021/11/06 04:10:52;;;;;;;;;21.75;18.50;;;;;10.17;60.18;102702.88;5059918;28;45407;-65
2021/11/06 04:13:18;;;;;;;;;17.00;15.25;;;;;10.16;60.48;102701.06;5060246;28;45310;-65
2021/11/06 04:15:44;;;;;;;;;17.75;16.25;;;;;10.15;60.31;102707.28;5059862;28;45592;-65
2021/11/06 04:18:09;;;;;;;;;17.00;17.00;;;;;10.13;60.43;102706.41;5058469;28;45353;-65
2021/11/06 04:20:35;;;;;;;;;20.50;17.50;;;;;10.10;60.72;102709.06;5059693;28;45396;-65
2021/11/06 04:23:00;;;;;;;;;18.00;16.50;;;;;10.10;60.66;102710.84;5059929;28;45280;-65
2021/11/06 04:25:25;;;;;;;;;19.00;15.50;;;;;10.06;60.68;102712.63;5059495;28;45239;-65
2021/11/06 04:27:51;;;;;;;;;20.50;15.50;;;;;10.01;60.33;102706.41;5059617;28;46180;-65
2021/11/06 04:30:17;;;;;;;;;15.25;15.25;;;;;10.00;60.64;102713.50;5046890;28;45332;-65
2021/11/06 04:32:42;;;;;;;;;22.50;18.25;;;;;9.99;60.65;102717.06;5058743;28;45256;-65
2021/11/06 04:35:09;;;;;;;;;21.00;18.00;;;;;9.97;60.56;102713.53;5059750;28;45446;-65
2021/11/06 04:37:34;;;;;;;;;23.25;19.50;;;;;9.95;60.18;102717.94;5059517;28;46974;-65
2021/11/06 04:39:59;;;;;;;;;18.50;16.50;;;;;9.95;60.64;102720.59;5058393;28;45327;-65
2021/11/06 04:42:25;;;;;;;;;21.00;18.00;;;;;9.95;60.44;102725.94;5059775;28;45259;-65
2021/11/06 04:44:50;;;;;;;;;18.25;16.50;;;;;9.83;60.17;102713.47;5059624;28;45277;-65
2021/11/06 04:47:16;;;;;;;;;17.75;17.00;;;;;9.89;60.52;102722.38;5058806;28;45331;-65
2021/11/06 04:49:42;;;;;;;;;22.00;17.00;;;;;9.91;60.70;102725.97;5058945;28;45362;-65
2021/11/06 04:52:07;;;;;;;;;18.00;18.00;;;;;9.87;60.38;102716.16;5059617;28;45310;-65
2021/11/06 04:54:32;;;;;;;;;18.50;17.50;;;;;9.83;60.68;102713.47;5062644;28;45311;-65
2021/11/06 04:56:58;;;;;;;;;19.50;17.75;;;;;9.84;60.68;102709.06;5062553;28;46137;-65
2021/11/06 04:59:23;;;;;;;;;20.25;17.00;;;;;9.83;60.69;102709.94;5062924;28;45360;-65
2021/11/06 05:01:48;;;;;;;;;18.50;16.75;;;;;9.82;60.80;102710.78;5062610;28;45299;-65
2021/11/06 05:04:14;;;;;;;;;16.75;16.75;;;;;9.84;60.66;102725.06;5062681;28;45246;-65
2021/11/06 05:06:40;;;;;;;;;21.25;18.25;;;;;9.83;60.54;102724.16;5062606;28;45548;-65
2021/11/06 05:09:05;;;;;;;;;16.75;16.75;;;;;9.79;60.57;102718.81;5061408;28;45552;-65
2021/11/06 05:11:31;;;;;;;;;20.25;19.25;;;;;9.79;60.76;102722.38;5062105;28;45292;-65
2021/11/06 05:13:57;;;;;;;;;15.25;14.75;;;;;9.77;60.73;102725.91;5062542;28;45302;-65
2021/11/06 05:16:22;;;;;;;;;18.75;17.25;;;;;9.76;60.20;102721.47;5062348;28;46926;-65
2021/11/06 05:18:47;;;;;;;;;21.50;18.00;;;;;9.76;60.36;102721.47;5061268;28;45472;-65
2021/11/06 05:21:13;;;;;;;;;22.00;21.50;;;;;9.71;60.27;102712.56;5062420;28;45208;-65
2021/11/06 05:23:38;;;;;;;;;11.25;11.25;;;;;9.69;60.67;102709.91;5062185;28;45290;-65
2021/11/06 05:26:04;;;;;;;;;19.25;16.50;;;;;9.72;60.89;102714.34;5062244;28;45327;-65
2021/11/06 05:28:30;;;;;;;;;17.75;16.75;;;;;9.70;60.92;102710.78;5062278;28;45610;-66
2021/11/06 05:30:55;;;;;;;;;19.25;18.00;;;;;9.69;60.55;102717.91;5062508;28;45287;-65
2021/11/06 05:33:20;;;;;;;;;20.25;17.00;;;;;9.65;60.22;102702.75;5062027;28;45492;-65
2021/11/06 05:35:46;;;;;;;;;18.00;17.00;;;;;9.68;60.35;102701.91;5062390;28;45445;-65
2021/11/06 05:38:11;;;;;;;;;20.25;18.50;;;;;9.63;60.17;102710.75;5062210;28;45402;-65
2021/11/06 05:40:37;;;;;;;;;22.50;20.50;;;;;9.63;60.68;102712.53;5062532;28;45303;-65
2021/11/06 05:43:03;;;;;;;;;22.25;19.25;;;;;9.62;60.63;102713.41;5062179;28;45693;-65
2021/11/06 05:45:28;;;;;;;;;24.25;21.25;;;;;9.61;60.42;102704.53;5062024;28;46792;-65
2021/11/06 05:47:54;;;;;;;;;17.50;17.50;;;;;9.58;60.24;102707.19;5061536;28;45382;-65
2021/11/06 05:50:19;;;;;;;;;18.25;17.75;;;;;9.56;60.44;102708.97;5062309;28;45299;-65
2021/11/06 05:52:45;;;;;;;;;17.75;16.50;;;;;9.53;60.34;102703.63;5059741;28;45357;-65
2021/11/06 05:55:13;;;;;;;;;16.50;15.75;;;;;9.46;60.52;102702.69;5045551;28;46419;-65
2021/11/06 05:57:39;;;;;;;;;24.00;22.50;;;;;9.52;60.60;102717.84;5054421;28;45457;-65
2021/11/06 06:00:11;;;;;;;;;21.50;18.25;;;;;9.51;60.66;102718.72;5061919;28;45375;-65
2021/11/06 06:02:37;;;;;;;;;20.00;20.00;;;;;9.49;60.46;102723.16;5061615;28;45239;-65
2021/11/06 06:05:04;;;;;;;;;23.50;22.25;;;;;9.49;60.69;102727.59;5061705;28;46249;-65
2021/11/06 06:07:30;;;;;;;;;28.50;22.75;;;;;9.47;60.77;102732.91;5061883;28;45224;-65
2021/11/06 06:09:55;;;;;;;;;21.25;21.25;;;;;9.42;60.32;102726.66;5056895;28;45282;-65
2021/11/06 06:12:21;;;;;;;;;27.75;23.00;;;;;9.44;60.29;102730.25;5056271;28;45439;-65
2021/11/06 06:14:46;;;;;;;;;21.25;18.00;;;;;9.43;60.51;102739.13;5061830;28;45380;-65
2021/11/06 06:17:11;;;;;;;;;18.50;17.25;;;;;9.41;60.38;102735.56;5061365;28;45368;-65
2021/11/06 06:19:36;;;;;;;;;20.75;18.50;;;;;9.39;60.48;102743.56;5061333;28;45436;-65
2021/11/06 06:22:02;;;;;;;;;25.75;20.75;;;;;9.38;60.25;102741.75;5061508;28;45362;-65
2021/11/06 06:24:27;;;;;;;;;23.00;22.75;;;;;9.35;60.41;102740.88;5061605;28;46195;-65
2021/11/06 06:26:53;;;;;;;;;20.50;20.00;;;;;9.34;60.72;102747.06;5047701;28;45369;-65
2021/11/06 06:29:18;;;;;;;;;27.75;24.50;;;;;9.33;60.46;102742.63;5061715;28;45378;-65
2021/11/06 06:31:44;;;;;;;;;18.25;16.75;;;;;9.32;60.85;102748.84;5061444;28;45264;-65
2021/11/06 06:34:09;;;;;;;;;19.00;16.75;;;;;9.30;60.77;102753.28;5061307;28;46035;-65
2021/11/06 06:36:35;;;;;;;;;21.50;20.00;;;;;9.29;60.71;102752.41;5061384;28;45248;-65
2021/11/06 06:39:00;;;;;;;;;21.75;19.50;;;;;9.31;60.74;102755.06;5061702;28;45129;-65
2021/11/06 06:41:26;;;;;;;;;20.00;18.25;;;;;9.27;61.29;102754.13;5061328;28;45199;-65
2021/11/06 06:43:52;;;;;;;;;23.00;21.50;;;;;9.25;60.80;102759.50;5061326;28;46603;-65
2021/11/06 06:46:18;;;;;;;;;21.75;20.25;;;;;9.27;60.46;102764.81;5061046;28;45324;-65
2021/11/06 06:48:43;;;;;;;;;21.25;19.00;;;;;9.27;60.89;102771.03;5060414;28;45446;-65
2021/11/06 06:51:09;;;;;;;;;22.50;20.50;;;;;9.24;60.50;102771.03;5061040;28;45287;-65
2021/11/06 06:53:34;;;;;;;;;20.50;17.75;;;;;9.25;60.83;102770.16;5059882;28;48166;-65
2021/11/06 06:56:00;;;;;;;;;17.00;17.00;;;;;9.24;60.65;102775.47;5048878;28;45464;-65
2021/11/06 06:58:25;;;;;;;;;21.75;18.00;;;;;9.22;60.65;102772.78;5059852;28;45276;-65
2021/11/06 07:00:51;;;;;;;;;25.50;23.25;;;;;9.17;60.70;102765.63;5060878;28;45349;-65
2021/11/06 07:03:16;;;;;;;;;25.75;19.75;;;;;9.17;60.73;102766.56;5060484;28;45369;-65
2021/11/06 07:05:41;;;;;;;;;16.75;14.50;;;;;9.16;60.76;102763.88;5060984;28;45313;-64
2021/11/06 07:08:07;;;;;;;;;22.50;22.50;;;;;9.14;60.64;102760.28;5059739;28;45428;-63
2021/11/06 07:10:33;;;;;;;;;24.75;22.00;;;;;9.17;60.94;102766.56;5059326;28;45689;-64
2021/11/06 07:12:59;;;;;;;;;23.75;20.00;;;;;9.16;60.86;102764.75;5060686;28;45387;-64
2021/11/06 07:15:25;;;;;;;;;25.75;23.75;;;;;9.14;60.69;102760.28;5059982;28;45306;-64
2021/11/06 07:17:50;;;;;;;;;22.50;20.50;;;;;9.17;61.06;102768.31;5060069;28;45914;-64
2021/11/06 07:20:19;;;;;;;;;23.50;22.25;;;;;9.17;60.78;102765.63;5060619;28;45418;-64
2021/11/06 07:22:45;;;;;;;;;21.00;21.00;;;;;9.11;60.74;102769.16;5060912;28;46529;-64
2021/11/06 07:25:10;;;;;;;;;28.50;23.00;;;;;9.06;61.29;102765.59;5060349;28;45316;-65
2021/11/06 07:27:36;;;;;;;;;28.50;26.25;;;;;9.15;60.90;102773.63;5048893;28;45306;-65
2021/11/06 07:30:04;;;;;;;;;26.00;24.00;;;;;9.09;61.17;102763.81;5058748;28;45260;-64
2021/11/06 07:32:29;;;;;;;;;24.50;22.00;;;;;9.13;61.02;102761.19;5066921;28;48259;-64
2021/11/06 07:34:55;;;;;;;;;20.00;20.00;;;;;9.16;61.36;102767.41;5060259;28;45313;-64
2021/11/06 07:37:20;;;;;;;;;22.50;21.00;;;;;9.13;60.86;102764.72;5060871;28;45314;-64
2021/11/06 07:39:45;;;;;;;;;28.00;24.00;;;;;9.16;61.10;102772.75;5060338;28;45366;-65
2021/11/06 07:42:11;;;;;;;;;22.00;22.00;;;;;9.16;60.93;102769.19;5060503;28;45342;-64
2021/11/06 07:44:36;;;;;;;;;21.75;21.25;;;;;9.14;61.21;102762.94;5060210;28;45318;-65
2021/11/06 07:47:02;;;;;;;;;27.25;23.75;;;;;9.16;61.19;102769.19;5058407;28;45378;-65
2021/11/06 07:49:27;;;;;;;;;22.75;21.00;;;;;9.16;61.06;102775.41;5057578;28;45492;-66
2021/11/06 07:51:58;;;;;;;;;21.00;20.75;;;;;9.07;61.25;102751.38;5059689;28;46130;-64
2021/11/06 07:54:24;;;;;;;;;21.00;21.00;;;;;9.18;61.15;102773.63;5047140;28;45686;-65
2021/11/06 07:56:49;;;;;;;;;26.50;22.00;;;;;9.17;61.15;102773.63;5060102;28;45334;-65
2021/11/06 07:59:15;;;;;;;;;27.00;22.25;;;;;9.19;61.06;102772.78;5072261;28;45296;-65
2021/11/06 08:01:40;;;;;;;;;28.00;26.75;;;;;9.16;61.04;102769.19;5058358;28;47129;-65
2021/11/06 08:04:05;;;;;;;;;24.25;20.75;;;;;9.17;61.23;102774.53;5058288;28;45532;-64
2021/11/06 08:06:31;;;;;;;;;30.25;23.25;;;;;9.19;61.73;102771.88;5060164;28;45191;-64
2021/11/06 08:08:57;;;;;;;;;28.25;25.25;;;;;9.21;61.44;102781.66;5059963;28;45383;-65
2021/11/06 08:11:24;;;;;;;;;29.50;23.75;;;;;9.21;61.47;102781.66;5059267;28;46087;-65
2021/11/06 08:13:49;;;;;;;;;26.25;23.50;;;;;9.22;61.54;102782.53;5051669;28;45148;-67
2021/11/06 08:16:15;;;;;;;;;29.50;27.00;;;;;9.23;61.73;102782.56;5050280;28;45319;-65
2021/11/06 08:18:41;;;;;;;;;25.00;20.75;;;;;9.25;61.61;102787.88;5059350;28;45385;-65
2021/11/06 08:21:07;;;;;;;;;27.00;24.00;;;;;9.25;61.74;102794.13;5057155;27;45732;-65
2021/11/06 08:23:32;;;;;;;;;22.00;20.25;;;;;9.25;61.67;102783.47;5049529;28;45272;-66
2021/11/06 08:25:58;;;;;;;;;22.75;21.25;;;;;9.25;61.54;102794.13;5059742;28;45469;-65
2021/11/06 08:28:24;;;;;;;;;19.00;16.00;;;;;9.26;61.84;102789.69;5062529;28;45495;-65
2021/11/06 08:30:49;;;;;;;;;16.25;16.25;;;;;9.28;61.41;102790.56;5063670;28;46195;-64
2021/11/06 08:33:15;;;;;;;;;23.50;22.50;;;;;9.28;61.59;102785.25;5054352;28;45744;-66
2021/11/06 08:35:43;;;;;;;;;14.75;14.00;;;;;9.30;61.67;102779.94;5062450;28;45439;-65
2021/11/06 08:38:11;;;;;;;;;21.00;17.75;;;;;9.31;62.18;102782.59;5066039;28;45591;-65
2021/11/06 08:40:38;;;;;;;;;22.50;18.25;;;;;9.27;61.70;102768.38;5059540;28;46250;-65
2021/11/06 08:43:04;;;;;;;;;20.00;17.25;;;;;9.30;61.51;102771.94;5061964;28;45451;-65
2021/11/06 08:45:29;;;;;;;;;18.00;16.00;;;;;9.34;62.21;102781.72;5061492;28;45480;-65
2021/11/06 08:48:06;;;;;;;;;18.50;15.75;;;;;9.33;61.57;102780.84;5063745;28;45258;-66
2021/11/06 08:50:32;;;;;;;;;17.75;16.50;;;;;9.28;61.41;102774.59;5062149;28;46848;-66
2021/11/06 08:52:59;;;;;;;;;16.50;16.25;;;;;9.33;61.80;102778.16;5077046;27;45779;-66
2021/11/06 08:55:25;;;;;;;;;17.75;17.00;;;;;9.34;61.82;102771.06;5061117;28;45816;-66
2021/11/06 08:57:51;;;;;;;;;15.00;15.00;;;;;9.33;61.91;102759.50;5061523;28;45489;-66
2021/11/06 09:00:32;;;;;;;;;17.00;16.50;;;;;9.39;61.71;102769.34;5061328;28;46043;-66
2021/11/06 09:03:00;;;;;;;;;20.25;19.75;;;;;9.43;61.98;102781.78;5059199;28;45363;-66
2021/11/06 09:05:26;;;;;;;;;14.50;11.00;;;;;9.46;61.82;102784.47;5061372;28;45410;-66
2021/11/06 09:07:51;;;;;;;;;17.00;15.25;;;;;9.50;61.75;102782.69;5060237;28;45310;-65
2021/11/06 09:10:18;;;;;;;;;21.50;20.00;;;;;9.53;61.90;102788.94;5060218;28;45402;-66
2021/11/06 09:12:44;;;;;;;;;23.00;19.25;;;;;9.48;61.64;102769.34;5060264;28;45700;-65
2021/11/06 09:15:10;;;;;;;;;24.75;22.00;;;;;9.62;61.85;102778.31;5061649;28;45579;-65
2021/11/06 09:17:35;;;;;;;;;18.25;18.25;;;;;9.66;61.28;102779.22;5060782;28;45370;-66
2021/11/06 09:20:03;;;;;;;;;20.50;16.75;;;;;9.73;61.96;102780.13;5061512;28;46045;-66
2021/11/06 09:22:28;;;;;;;;;20.00;17.75;;;;;9.79;61.65;102772.16;5055138;28;45554;-65
2021/11/06 09:24:55;;;;;;;;;15.50;15.50;;;;;9.85;61.68;102784.63;5053901;28;45322;-65
2021/11/06 09:27:20;;;;;;;;;18.25;17.00;;;;;9.88;61.74;102776.63;5061179;28;45754;-65
2021/11/06 09:29:47;;;;;;;;;14.75;14.50;;;;;9.93;61.33;102775.75;5060900;28;45470;-65
2021/11/06 09:32:12;;;;;;;;;23.25;17.25;;;;;10.00;61.83;102774.88;5060906;28;45418;-65
2021/11/06 09:34:41;;;;;;;;;17.25;17.25;;;;;10.07;61.21;102767.75;5061711;28;45330;-68
2021/11/06 09:37:08;;;;;;;;;18.25;17.50;;;;;10.13;61.37;102773.13;5060430;28;45566;-63
2021/11/06 09:39:34;;;;;;;;;19.75;18.00;;;;;10.20;61.58;102774.91;5059874;28;46094;-65
2021/11/06 09:42:01;;;;;;;;;20.00;18.00;;;;;10.25;61.38;102761.56;5069240;28;45405;-65
2021/11/06 09:44:30;;;;;;;;;15.25;14.75;;;;;10.28;60.50;102763.38;5059340;28;45509;-65
2021/11/06 09:46:57;;;;;;;;;17.00;16.75;;;;;10.35;60.94;102760.72;5060596;28;45240;-65
2021/11/06 09:49:22;;;;;;;;;16.75;16.25;;;;;10.40;60.59;102768.75;5060166;28;48237;-65
2021/11/06 09:51:48;;;;;;;;;16.25;13.25;;;;;10.44;60.61;102767.88;5062521;28;45343;-65
2021/11/06 09:54:13;;;;;;;;;21.75;18.75;;;;;10.45;60.56;102758.97;5062187;28;45308;-66
2021/11/06 09:56:39;;;;;;;;;15.75;15.75;;;;;10.52;61.07;102768.78;5062009;28;45418;-65
2021/11/06 09:59:04;;;;;;;;;17.25;17.00;;;;;10.60;60.41;102765.19;5061500;28;46268;-65
2021/11/06 10:01:32;;;;;;;;;15.75;13.25;;;;;10.66;60.12;102759.84;5061461;28;45806;-65
2021/11/06 10:03:58;;;;;;;;;18.25;16.25;;;;;10.69;60.15;102760.75;5061722;28;45485;-66
2021/11/06 10:06:26;;;;;;;;;17.00;15.75;;;;;10.74;59.97;102761.63;5062033;28;45427;-65
2021/11/06 10:08:54;;;;;;;;;17.00;15.25;;;;;10.80;60.35;102758.06;5061421;28;46307;-66
2021/11/06 10:11:22;;;;;;;;;12.75;12.75;;;;;10.85;59.67;102758.94;5057571;28;45557;-65
2021/11/06 10:13:56;;;;;;;;;11.25;11.25;;;;;10.90;60.06;102759.81;5061686;28;45338;-65
2021/11/06 10:16:35;;;;;;;;;19.25;17.00;;;;;10.96;59.59;102761.63;5061368;28;45585;-65
2021/11/06 10:19:21;;;;;;;;;17.00;17.00;;;;;10.99;60.05;102758.03;5061351;28;46524;-66
2021/11/06 10:21:49;;;;;;;;;19.50;14.50;;;;;11.03;59.48;102757.16;5061406;28;46217;-65
2021/11/06 10:24:18;;;;;;;;;16.50;15.00;;;;;11.04;59.43;102754.47;5048908;28;45459;-65
2021/11/06 10:26:44;;;;;;;;;17.00;12.50;;;;;11.09;59.14;102747.34;5060061;28;45509;-65
2021/11/06 10:29:13;;;;;;;;;16.25;14.75;;;;;11.14;59.17;102749.97;5061421;28;46157;-66
2021/11/06 10:31:53;;;;;;;;;17.00;15.75;;;;;11.19;59.36;102749.97;5061033;28;45653;-65
2021/11/06 10:34:21;;;;;;;;;16.25;15.25;;;;;11.25;59.52;102748.16;5061529;28;45390;-65
2021/11/06 10:36:57;;;;;;;;;9.50;9.50;;;;;11.30;59.16;102748.16;5061379;28;45165;-65
2021/11/06 10:39:22;;;;;;;;;10.50;10.50;;;;;11.32;59.04;102739.22;5061251;28;46258;-65
2021/11/06 10:41:48;;;;;;;;;9.75;9.75;;;;;11.39;58.43;102740.06;5061533;28;45919;-65
2021/11/06 10:44:19;;;;;;;;;9.50;8.50;;;;;11.40;58.16;102739.19;5061509;28;45240;-66
2021/11/06 10:46:51;;;;;;;;;10.25;8.50;;;;;11.45;57.76;102739.19;5055972;28;45383;-65
2021/11/06 10:49:36;;;;;;;;;12.00;9.50;;;;;11.49;57.99;102744.53;5060700;28;45398;-65
2021/11/06 10:52:04;;;;;;;;;7.25;5.00;;;;;11.50;57.97;102734.72;5049690;28;45358;-66
2021/11/06 10:54:30;;;;;;;;;9.25;7.50;;;;;11.55;57.75;102732.91;5060000;28;45429;-66
2021/11/06 10:56:56;;;;;;;;;7.00;6.75;;;;;11.57;57.48;102731.09;5061223;28;45482;-65
2021/11/06 10:59:23;;;;;;;;;5.00;5.00;;;;;11.59;57.21;102734.66;5063041;28;47023;-65
2021/11/06 11:01:56;;;;;;;;;5.50;5.50;;;;;11.64;57.22;102738.22;5056358;28;45581;-66
2021/11/06 11:04:23;;;;;;;;;4.00;3.50;;;;;11.66;56.93;102730.16;5059842;28;45263;-64
2021/11/06 11:06:53;;;;;;;;;8.75;8.50;;;;;11.66;56.65;102723.03;5060780;28;45423;-63
2021/11/06 11:09:27;;;;;;;;;9.25;7.50;;;;;11.71;56.44;102725.69;5059194;28;48078;-65